Time;durP1;ratioP1;P1;durP2;ratioP2;P2;SDS_P1;SDS_P2;PMS_P1;PMS_P2;Temp;Humidity;BMP_temperature;BMP_pressure;BME280_temperature;BME280_humidity;BME280_pressure;Samples;Min_cycle;Max_cycle;Signal;HPM_P1;HPM_P2
2022/10/30 00:01:45;;;;;;;7.90;5.53;;;22.10;99.90;;;;;;5045858;28;20462;-44
2022/10/30 00:04:12;;;;;;;9.50;5.47;;;22.10;99.90;;;;;;5038408;28;20462;-43
2022/10/30 00:06:39;;;;;;;9.53;5.77;;;22.10;99.90;;;;;;5037772;28;20471;-44
2022/10/30 00:09:05;;;;;;;6.70;5.50;;;22.10;99.90;;;;;;5038074;28;20615;-44
2022/10/30 00:11:32;;;;;;;6.17;5.37;;;22.00;99.90;;;;;;5043733;28;20454;-44
2022/10/30 00:13:59;;;;;;;6.73;4.90;;;21.90;99.90;;;;;;5042239;28;20472;-44
2022/10/30 00:16:27;;;;;;;7.17;5.57;;;22.00;99.90;;;;;;5040257;28;20482;-44
2022/10/30 00:18:54;;;;;;;6.60;4.83;;;22.10;99.90;;;;;;5041652;28;20461;-44
2022/10/30 00:21:21;;;;;;;7.03;5.50;;;22.10;99.90;;;;;;5036311;28;20459;-45
2022/10/30 00:23:49;;;;;;;5.83;4.33;;;22.10;99.90;;;;;;5044350;28;20454;-44
2022/10/30 00:26:16;;;;;;;6.67;5.23;;;22.10;99.90;;;;;;5046836;28;20504;-44
2022/10/30 00:28:43;;;;;;;9.10;6.10;;;22.10;99.90;;;;;;5045883;28;20490;-44
2022/10/30 00:31:10;;;;;;;8.03;5.33;;;22.00;99.90;;;;;;5041786;28;20470;-44
2022/10/30 00:33:38;;;;;;;5.90;4.30;;;22.00;99.90;;;;;;5037357;28;20466;-46
2022/10/30 00:36:05;;;;;;;7.10;5.07;;;22.00;99.90;;;;;;5037311;28;20458;-44
2022/10/30 00:38:32;;;;;;;8.80;5.93;;;22.00;99.90;;;;;;5044288;28;20812;-44
2022/10/30 00:40:59;;;;;;;5.30;4.20;;;22.00;99.90;;;;;;5035940;28;20473;-44
2022/10/30 00:43:32;;;;;;;7.13;5.33;;;21.90;99.90;;;;;;5049409;28;20442;-44
2022/10/30 00:46:03;;;;;;;8.47;5.60;;;21.90;99.90;;;;;;5038458;28;20849;-44
2022/10/30 00:48:30;;;;;;;9.43;5.57;;;22.00;99.90;;;;;;5043988;28;20481;-44
2022/10/30 00:51:00;;;;;;;6.73;5.33;;;22.00;99.90;;;;;;5047004;28;20460;-44
2022/10/30 00:53:29;;;;;;;9.10;5.40;;;22.00;99.90;;;;;;5044860;28;20968;-44
2022/10/30 00:55:59;;;;;;;7.50;4.50;;;22.00;99.90;;;;;;5046751;28;20960;-44
2022/10/30 00:58:29;;;;;;;6.10;5.47;;;22.00;99.90;;;;;;5037027;28;20961;-44
2022/10/30 01:00:59;;;;;;;6.60;5.43;;;22.00;99.90;;;;;;5045627;28;20457;-44
2022/10/30 01:03:27;;;;;;;7.53;5.10;;;22.00;99.90;;;;;;5046972;28;20464;-43
2022/10/30 01:06:01;;;;;;;4.80;4.37;;;22.00;99.90;;;;;;5044912;28;20473;-44
2022/10/30 01:08:27;;;;;;;8.30;4.93;;;22.00;99.90;;;;;;5047759;28;20469;-44
2022/10/30 01:10:56;;;;;;;4.97;4.33;;;22.00;99.90;;;;;;5051274;28;20461;-44
2022/10/30 01:13:24;;;;;;;5.10;4.60;;;22.00;99.90;;;;;;5047285;28;20439;-45
2022/10/30 01:15:58;;;;;;;6.20;5.00;;;22.00;99.90;;;;;;5044793;28;20507;-44
2022/10/30 01:18:34;;;;;;;5.87;5.27;;;22.00;99.90;;;;;;5049405;28;20464;-45
2022/10/30 01:21:18;;;;;;;6.97;4.40;;;22.00;99.90;;;;;;5049335;28;20441;-44
2022/10/30 01:24:01;;;;;;;6.20;4.50;;;22.00;99.90;;;;;;5034786;28;20450;-44
2022/10/30 01:26:36;;;;;;;5.53;4.60;;;21.90;99.90;;;;;;5041956;28;20481;-44
2022/10/30 01:29:21;;;;;;;5.50;4.70;;;21.90;99.90;;;;;;5046529;28;20482;-44
2022/10/30 01:31:58;;;;;;;6.07;5.20;;;21.90;99.90;;;;;;5037242;28;20801;-44
2022/10/30 01:34:37;;;;;;;5.50;5.00;;;21.90;99.90;;;;;;5042251;28;20968;-44
2022/10/30 01:37:12;;;;;;;5.10;4.60;;;21.90;99.90;;;;;;5044503;28;20516;-44
2022/10/30 01:39:41;;;;;;;8.90;5.20;;;21.90;99.90;;;;;;5038875;28;20863;-44
2022/10/30 01:42:31;;;;;;;6.20;4.90;;;21.80;99.90;;;;;;5046996;28;20465;-44
2022/10/30 01:44:58;;;;;;;5.30;4.87;;;21.90;99.90;;;;;;5045562;28;20461;-49
2022/10/30 01:47:33;;;;;;;5.77;4.80;;;21.80;99.90;;;;;;5048720;28;20485;-44
2022/10/30 01:50:31;;;;;;;5.17;4.40;;;21.80;99.90;;;;;;5038418;28;20461;-44
2022/10/30 01:53:06;;;;;;;10.23;6.20;;;21.80;99.90;;;;;;5024965;28;20462;-44
2022/10/30 01:55:37;;;;;;;6.30;5.13;;;21.80;99.90;;;;;;5040956;28;20462;-44
2022/10/30 01:58:15;;;;;;;5.00;4.50;;;21.90;99.90;;;;;;5046377;28;20511;-44
2022/10/30 02:00:46;;;;;;;5.00;4.23;;;21.80;99.90;;;;;;5032324;28;21020;-43
2022/10/30 02:03:13;;;;;;;5.37;4.87;;;21.80;99.90;;;;;;5047095;28;20466;-44
2022/10/30 02:05:43;;;;;;;5.53;4.50;;;21.80;99.90;;;;;;5044583;28;20696;-44
2022/10/30 02:08:11;;;;;;;5.57;4.97;;;21.80;99.90;;;;;;5040648;28;20532;-44
2022/10/30 02:10:41;;;;;;;5.40;4.90;;;21.80;99.90;;;;;;5038065;28;20864;-44
2022/10/30 02:13:07;;;;;;;4.63;4.03;;;21.80;99.90;;;;;;5048394;28;20454;-44
2022/10/30 02:15:35;;;;;;;6.30;4.77;;;21.80;99.90;;;;;;5038305;28;20466;-44
2022/10/30 02:18:01;;;;;;;6.83;5.13;;;21.70;99.90;;;;;;5041760;28;20485;-45
2022/10/30 02:20:29;;;;;;;6.97;4.63;;;21.80;99.90;;;;;;5040116;28;20462;-45
2022/10/30 02:22:57;;;;;;;4.73;4.20;;;21.80;99.90;;;;;;5046754;28;20938;-44
2022/10/30 02:25:23;;;;;;;4.90;4.23;;;21.70;99.90;;;;;;5041542;28;20469;-44
2022/10/30 02:27:50;;;;;;;6.13;5.23;;;21.70;99.90;;;;;;5046294;28;20486;-44
2022/10/30 02:30:17;;;;;;;7.53;5.53;;;21.70;99.90;;;;;;5040501;28;20557;-44
2022/10/30 02:32:43;;;;;;;4.10;3.60;;;21.70;99.90;;;;;;5044482;28;20781;-45
2022/10/30 02:35:10;;;;;;;6.53;4.73;;;21.70;99.90;;;;;;5032050;28;20466;-44
2022/10/30 02:37:38;;;;;;;5.30;4.67;;;21.70;99.90;;;;;;5047140;28;20461;-46
2022/10/30 02:40:07;;;;;;;6.83;5.20;;;21.60;99.90;;;;;;5045176;28;20548;-44
2022/10/30 02:42:33;;;;;;;5.13;4.27;;;21.60;99.90;;;;;;5050170;28;20493;-44
2022/10/30 02:45:00;;;;;;;6.33;5.53;;;21.60;99.90;;;;;;5046752;28;20469;-47
2022/10/30 02:47:28;;;;;;;4.77;4.27;;;21.60;99.90;;;;;;5033519;28;20476;-45
2022/10/30 02:49:55;;;;;;;5.43;4.73;;;21.60;99.90;;;;;;5039512;28;20463;-45
2022/10/30 02:52:22;;;;;;;5.67;4.13;;;21.50;99.90;;;;;;5034170;28;20791;-45
2022/10/30 02:54:50;;;;;;;5.20;4.30;;;21.50;99.90;;;;;;5036674;28;20462;-45
2022/10/30 02:57:16;;;;;;;4.63;4.23;;;21.60;99.90;;;;;;5043761;28;20465;-45
2022/10/30 02:59:43;;;;;;;6.70;5.50;;;21.50;99.90;;;;;;5046901;28;20459;-45
2022/10/30 03:02:10;;;;;;;5.60;4.50;;;21.50;99.90;;;;;;5041468;28;20464;-45
2022/10/30 03:04:36;;;;;;;5.30;4.30;;;21.50;99.90;;;;;;5045009;28;20470;-51
2022/10/30 03:07:03;;;;;;;5.00;4.50;;;21.50;99.90;;;;;;5038391;28;20465;-44
2022/10/30 03:09:29;;;;;;;5.30;4.80;;;21.50;99.90;;;;;;5043144;28;20554;-45
2022/10/30 03:11:58;;;;;;;5.53;4.10;;;21.50;99.90;;;;;;5051820;28;20817;-44
2022/10/30 03:14:24;;;;;;;4.47;4.07;;;21.50;99.90;;;;;;5044205;28;20462;-45
2022/10/30 03:16:52;;;;;;;4.87;3.90;;;21.50;99.90;;;;;;5041377;28;20483;-44
2022/10/30 03:19:20;;;;;;;6.40;5.47;;;21.50;99.90;;;;;;5036640;28;20550;-45
2022/10/30 03:21:46;;;;;;;6.63;5.70;;;21.40;99.90;;;;;;5040561;28;20465;-44
2022/10/30 03:24:13;;;;;;;5.07;4.67;;;21.40;99.90;;;;;;5041258;28;20462;-44
2022/10/30 03:26:40;;;;;;;3.90;3.50;;;21.50;99.90;;;;;;5042674;28;20457;-45
2022/10/30 03:29:08;;;;;;;5.27;4.30;;;21.40;99.90;;;;;;5050011;28;20480;-44
2022/10/30 03:31:35;;;;;;;4.50;3.87;;;21.40;99.90;;;;;;5040079;28;20457;-45
2022/10/30 03:34:02;;;;;;;4.60;4.10;;;21.40;99.90;;;;;;5042605;28;20586;-44
2022/10/30 03:36:28;;;;;;;4.90;4.50;;;21.50;99.90;;;;;;5039690;28;21010;-45
2022/10/30 03:38:55;;;;;;;4.63;4.13;;;21.40;99.90;;;;;;5045313;28;20469;-45
2022/10/30 03:41:22;;;;;;;5.67;4.80;;;21.40;99.90;;;;;;5043683;28;20469;-45
2022/10/30 03:43:48;;;;;;;5.40;4.23;;;21.40;99.90;;;;;;5049702;28;20449;-43
2022/10/30 03:46:16;;;;;;;5.80;4.20;;;21.40;99.90;;;;;;5039382;28;20894;-43
2022/10/30 03:48:43;;;;;;;4.87;4.43;;;21.40;99.90;;;;;;5046355;28;20486;-45
2022/10/30 03:51:10;;;;;;;4.90;4.07;;;21.40;99.90;;;;;;5048111;28;20463;-45
2022/10/30 03:53:36;;;;;;;6.90;4.60;;;21.40;99.90;;;;;;5030861;28;20447;-43
2022/10/30 03:56:04;;;;;;;6.17;4.67;;;21.40;99.90;;;;;;5040897;28;21071;-45
2022/10/30 03:58:31;;;;;;;4.87;4.37;;;21.40;99.90;;;;;;5045363;28;20461;-45
2022/10/30 04:01:03;;;;;;;5.72;4.47;;;21.40;99.90;;;;;;5030552;28;20489;-44
2022/10/30 04:03:31;;;;;;;5.20;4.50;;;21.40;99.90;;;;;;5047879;28;20563;-45
2022/10/30 04:05:58;;;;;;;4.17;3.77;;;21.40;99.90;;;;;;5044381;28;20845;-43
2022/10/30 04:08:24;;;;;;;4.20;3.60;;;21.40;99.90;;;;;;5046753;28;20548;-45
2022/10/30 04:10:51;;;;;;;5.03;4.63;;;21.30;99.90;;;;;;5038853;28;20451;-44
2022/10/30 04:13:19;;;;;;;5.50;4.33;;;21.30;99.90;;;;;;5048625;28;20437;-43
2022/10/30 04:15:47;;;;;;;4.50;4.10;;;21.30;99.90;;;;;;5042495;28;20550;-43
2022/10/30 04:18:16;;;;;;;6.60;4.63;;;21.30;99.90;;;;;;5046746;28;20484;-44
2022/10/30 04:20:45;;;;;;;4.50;3.83;;;21.30;99.90;;;;;;5031357;28;20632;-43
2022/10/30 04:23:14;;;;;;;6.33;4.20;;;21.30;99.90;;;;;;5042628;28;20543;-43
2022/10/30 04:25:41;;;;;;;5.07;4.60;;;21.30;99.90;;;;;;5050818;28;20461;-43
2022/10/30 04:28:08;;;;;;;5.03;4.00;;;21.30;99.90;;;;;;5054462;28;20187;-43
2022/10/30 04:30:35;;;;;;;5.20;4.00;;;21.50;99.90;;;;;;5043907;28;20462;-45
2022/10/30 04:33:03;;;;;;;4.33;3.93;;;22.10;99.90;;;;;;5051336;28;20653;-44
2022/10/30 04:35:32;;;;;;;4.20;3.80;;;22.20;99.90;;;;;;5048431;28;20464;-45
2022/10/30 04:38:02;;;;;;;4.30;3.90;;;22.20;99.90;;;;;;5048186;28;20996;-44
2022/10/30 04:40:32;;;;;;;4.07;3.67;;;22.40;99.90;;;;;;5050508;28;20457;-45
2022/10/30 04:42:59;;;;;;;4.17;3.23;;;22.50;99.90;;;;;;5049270;28;20488;-44
2022/10/30 04:45:26;;;;;;;4.60;3.10;;;22.60;99.90;;;;;;5043693;28;20469;-44
2022/10/30 04:47:53;;;;;;;3.80;3.50;;;22.60;99.90;;;;;;5045142;28;20457;-45
2022/10/30 04:50:20;;;;;;;5.10;4.60;;;22.70;99.90;;;;;;5044672;28;21021;-45
2022/10/30 04:52:46;;;;;;;3.53;3.23;;;22.70;99.90;;;;;;5048352;28;20468;-43
2022/10/30 04:55:14;;;;;;;3.57;3.27;;;22.70;99.90;;;;;;5044154;28;20466;-45
2022/10/30 04:57:41;;;;;;;4.00;3.33;;;22.80;99.90;;;;;;5051144;28;20488;-44
2022/10/30 05:00:10;;;;;;;6.50;3.83;;;22.80;99.90;;;;;;5046986;28;20485;-45
2022/10/30 05:02:37;;;;;;;3.30;3.00;;;22.80;99.90;;;;;;5043852;28;20453;-45
2022/10/30 05:05:05;;;;;;;4.27;3.80;;;22.80;99.90;;;;;;5046552;28;20454;-44
2022/10/30 05:07:31;;;;;;;5.37;4.00;;;22.80;99.90;;;;;;5045220;28;20465;-44
2022/10/30 05:09:58;;;;;;;4.43;3.30;;;22.80;99.90;;;;;;5040830;28;20482;-44
2022/10/30 05:12:26;;;;;;;5.00;4.23;;;22.70;99.90;;;;;;5053646;28;20445;-44
2022/10/30 05:14:53;;;;;;;4.07;3.50;;;22.70;99.90;;;;;;5038020;28;20469;-44
2022/10/30 05:17:20;;;;;;;4.27;3.70;;;22.60;99.90;;;;;;5045039;28;20592;-46
2022/10/30 05:19:47;;;;;;;4.03;3.50;;;22.60;99.90;;;;;;5044340;28;20935;-45
2022/10/30 05:22:14;;;;;;;3.80;3.50;;;22.60;99.90;;;;;;5050473;28;20533;-44
2022/10/30 05:24:40;;;;;;;3.60;3.30;;;22.50;99.90;;;;;;5042515;28;20484;-44
2022/10/30 05:27:07;;;;;;;4.33;3.93;;;22.50;99.90;;;;;;5052901;28;20450;-43
2022/10/30 05:29:35;;;;;;;4.47;3.67;;;22.50;99.90;;;;;;5041620;28;20530;-43
2022/10/30 05:32:02;;;;;;;3.37;3.07;;;22.40;99.90;;;;;;5044691;28;20466;-45
2022/10/30 05:34:28;;;;;;;4.37;3.97;;;22.40;99.90;;;;;;5046010;28;20449;-45
2022/10/30 05:36:55;;;;;;;4.37;3.53;;;22.40;99.90;;;;;;5037747;28;20462;-44
2022/10/30 05:39:22;;;;;;;3.93;3.53;;;22.30;99.90;;;;;;5038916;28;20469;-45
2022/10/30 05:41:48;;;;;;;5.10;4.00;;;22.20;99.90;;;;;;5052308;28;20470;-45
2022/10/30 05:44:15;;;;;;;3.90;3.50;;;22.20;99.90;;;;;;5043514;28;20458;-45
2022/10/30 05:46:43;;;;;;;3.40;3.10;;;22.20;99.90;;;;;;5050954;28;20465;-45
2022/10/30 05:49:10;;;;;;;3.83;3.53;;;22.10;99.90;;;;;;5038174;28;20486;-44
2022/10/30 05:51:36;;;;;;;3.57;3.27;;;22.10;99.90;;;;;;5040114;28;20477;-44
2022/10/30 05:54:03;;;;;;;3.97;3.30;;;22.10;99.90;;;;;;5043727;28;20457;-43
2022/10/30 05:56:30;;;;;;;4.13;3.73;;;22.10;99.90;;;;;;5047172;28;20461;-45
2022/10/30 05:58:57;;;;;;;3.90;3.13;;;22.00;99.90;;;;;;5046891;28;20473;-43
2022/10/30 06:01:24;;;;;;;3.93;3.53;;;22.00;99.90;;;;;;5050065;28;20828;-44
2022/10/30 06:03:52;;;;;;;3.43;3.13;;;22.00;99.90;;;;;;5039778;28;20478;-45
2022/10/30 06:06:18;;;;;;;3.77;3.33;;;22.10;99.90;;;;;;5050157;28;20980;-44
2022/10/30 06:08:45;;;;;;;3.60;3.30;;;22.10;99.90;;;;;;5042155;28;20794;-45
2022/10/30 06:11:12;;;;;;;3.93;3.63;;;22.20;99.90;;;;;;5039017;28;20462;-45
2022/10/30 06:13:39;;;;;;;3.90;3.30;;;22.20;99.90;;;;;;5048217;28;20468;-45
2022/10/30 06:16:06;;;;;;;3.30;3.00;;;22.30;99.90;;;;;;5046324;28;20608;-45
2022/10/30 06:18:32;;;;;;;3.77;3.47;;;22.40;99.90;;;;;;5047172;28;20465;-45
2022/10/30 06:21:00;;;;;;;3.07;2.73;;;22.40;99.90;;;;;;5048791;28;20470;-45
2022/10/30 06:23:27;;;;;;;3.60;3.30;;;22.40;99.90;;;;;;5049396;28;20458;-45
2022/10/30 06:25:54;;;;;;;3.43;3.13;;;22.50;99.90;;;;;;5049519;28;20469;-45
2022/10/30 06:28:20;;;;;;;3.00;2.80;;;22.50;99.90;;;;;;5043091;28;20464;-45
2022/10/30 06:30:47;;;;;;;3.47;3.23;;;22.60;99.90;;;;;;5044139;28;20500;-45
2022/10/30 06:33:14;;;;;;;3.57;3.27;;;22.60;99.90;;;;;;5049560;28;20454;-43
2022/10/30 06:35:40;;;;;;;3.03;2.70;;;22.60;99.90;;;;;;5032662;28;20473;-45
2022/10/30 06:38:10;;;;;;;7.87;3.50;;;22.70;99.90;;;;;;5043157;28;20455;-43
2022/10/30 06:40:37;;;;;;;3.73;3.43;;;22.70;99.90;;;;;;5040862;28;20469;-43
2022/10/30 06:43:04;;;;;;;3.53;3.23;;;22.70;99.90;;;;;;5043430;28;20511;-44
2022/10/30 06:45:30;;;;;;;4.70;3.90;;;22.70;99.90;;;;;;5045964;28;20461;-44
2022/10/30 06:47:57;;;;;;;8.27;3.07;;;22.70;99.90;;;;;;5047938;28;20814;-44
2022/10/30 06:50:24;;;;;;;5.27;3.20;;;22.80;99.90;;;;;;5047358;28;20566;-44
2022/10/30 06:52:51;;;;;;;3.80;3.40;;;22.80;99.90;;;;;;5047124;28;20845;-44
2022/10/30 06:55:19;;;;;;;4.63;3.07;;;22.80;99.90;;;;;;5043742;28;20487;-44
2022/10/30 06:57:46;;;;;;;3.60;3.27;;;22.80;99.90;;;;;;5044092;28;20455;-44
2022/10/30 07:00:13;;;;;;;6.07;5.20;;;22.80;99.90;;;;;;5028336;28;20458;-45
2022/10/30 07:02:40;;;;;;;4.80;4.30;;;22.70;99.90;;;;;;5040288;28;20461;-44
2022/10/30 07:05:07;;;;;;;5.30;4.80;;;22.60;99.90;;;;;;5050553;28;20442;-44
2022/10/30 07:07:34;;;;;;;4.80;4.30;;;22.60;99.90;;;;;;5043893;28;20461;-45
2022/10/30 07:10:01;;;;;;;5.30;4.80;;;22.60;99.90;;;;;;5038577;28;20478;-44
2022/10/30 07:12:29;;;;;;;5.30;4.80;;;22.60;99.90;;;;;;5040806;28;20505;-45
2022/10/30 07:14:55;;;;;;;8.33;5.20;;;22.60;99.90;;;;;;5050144;28;20457;-46
2022/10/30 07:17:22;;;;;;;4.43;3.87;;;22.60;99.90;;;;;;5046242;28;20465;-44
2022/10/30 07:19:49;;;;;;;5.70;4.20;;;22.60;99.90;;;;;;5033829;28;20464;-45
2022/10/30 07:22:15;;;;;;;5.00;4.50;;;22.50;99.90;;;;;;5031526;28;20954;-45
2022/10/30 07:24:42;;;;;;;5.03;4.50;;;22.60;99.90;;;;;;5040542;28;20511;-43
2022/10/30 07:27:09;;;;;;;5.43;4.93;;;22.50;99.90;;;;;;5047341;28;20462;-45
2022/10/30 07:29:37;;;;;;;4.70;4.20;;;22.60;99.90;;;;;;5044762;28;20477;-45
2022/10/30 07:32:04;;;;;;;4.40;3.90;;;22.60;99.90;;;;;;5042737;28;20461;-45
2022/10/30 07:34:31;;;;;;;4.80;4.30;;;22.60;99.90;;;;;;5037725;28;20453;-45
2022/10/30 07:36:57;;;;;;;5.57;3.80;;;22.60;99.90;;;;;;5047687;28;20461;-45
2022/10/30 07:39:24;;;;;;;5.50;4.60;;;22.60;99.90;;;;;;5042397;28;20511;-45
2022/10/30 07:41:51;;;;;;;7.07;4.70;;;22.60;99.90;;;;;;5045599;28;20888;-44
2022/10/30 07:44:18;;;;;;;4.83;4.40;;;22.60;99.90;;;;;;5049057;28;20461;-45
2022/10/30 07:46:46;;;;;;;4.67;3.83;;;22.60;99.90;;;;;;5033674;28;20449;-45
2022/10/30 07:49:12;;;;;;;6.17;4.30;;;22.60;99.90;;;;;;5031154;28;20834;-45
2022/10/30 07:51:39;;;;;;;5.10;4.13;;;22.70;99.90;;;;;;5046711;28;20466;-44
2022/10/30 07:54:06;;;;;;;4.73;4.33;;;22.70;99.90;;;;;;5040427;28;20458;-45
2022/10/30 07:56:32;;;;;;;4.87;4.47;;;22.80;99.90;;;;;;5041115;28;20458;-45
2022/10/30 07:58:59;;;;;;;5.53;3.97;;;22.80;99.90;;;;;;5046646;28;20936;-43
2022/10/30 08:01:26;;;;;;;4.30;3.90;;;22.80;99.90;;;;;;5046685;28;20462;-45
2022/10/30 08:03:54;;;;;;;4.93;4.20;;;22.80;99.90;;;;;;5047069;28;20477;-43
2022/10/30 08:06:20;;;;;;;6.17;4.17;;;22.80;99.90;;;;;;5044416;28;20457;-45
2022/10/30 08:08:47;;;;;;;4.73;3.87;;;22.80;99.90;;;;;;5044181;28;20457;-44
2022/10/30 08:11:14;;;;;;;4.23;3.93;;;22.80;99.90;;;;;;5031726;28;20478;-45
2022/10/30 08:13:40;;;;;;;4.20;3.40;;;22.90;99.90;;;;;;5042124;28;20820;-44
2022/10/30 08:16:08;;;;;;;4.70;4.30;;;22.90;99.90;;;;;;5049170;28;20457;-45
2022/10/30 08:18:34;;;;;;;4.00;3.60;;;22.90;99.90;;;;;;5042142;28;20457;-44
2022/10/30 08:21:02;;;;;;;4.57;4.17;;;22.90;99.90;;;;;;5041469;28;20473;-44
2022/10/30 08:23:29;;;;;;;4.00;3.60;;;22.90;99.90;;;;;;5049019;28;20457;-46
2022/10/30 08:25:59;;;;;;;6.33;4.67;;;22.90;99.90;;;;;;5041389;28;20462;-45
2022/10/30 08:28:26;;;;;;;3.80;3.37;;;22.90;99.90;;;;;;5040359;28;20508;-44
2022/10/30 08:30:53;;;;;;;3.90;3.60;;;22.90;99.90;;;;;;5050325;28;20998;-45
2022/10/30 08:33:20;;;;;;;4.50;4.10;;;22.90;99.90;;;;;;5047072;28;20464;-45
2022/10/30 08:35:50;;;;;;;4.77;4.37;;;22.90;99.90;;;;;;5048262;28;20742;-45
2022/10/30 08:38:19;;;;;;;4.27;3.87;;;23.00;99.90;;;;;;5036322;28;20528;-45
2022/10/30 08:40:45;;;;;;;4.33;3.93;;;23.00;99.90;;;;;;5043786;28;20467;-43
2022/10/30 08:43:12;;;;;;;4.73;4.30;;;23.00;99.90;;;;;;5031462;28;20924;-45
2022/10/30 08:45:39;;;;;;;3.90;3.37;;;23.00;99.90;;;;;;5044209;28;20458;-45
2022/10/30 08:48:07;;;;;;;4.70;4.10;;;23.10;99.90;;;;;;5043982;28;20472;-44
2022/10/30 08:50:34;;;;;;;5.87;4.43;;;23.10;99.90;;;;;;5039216;28;20515;-45
2022/10/30 08:53:03;;;;;;;4.90;3.73;;;23.10;99.90;;;;;;5030612;28;20459;-44
2022/10/30 08:55:32;;;;;;;5.07;4.33;;;23.20;99.90;;;;;;5040805;28;20457;-44
2022/10/30 08:57:58;;;;;;;3.57;3.27;;;23.20;99.90;;;;;;5037006;28;20520;-44
2022/10/30 09:00:26;;;;;;;5.77;3.20;;;23.20;99.90;;;;;;5047575;28;20457;-44
2022/10/30 09:02:53;;;;;;;4.33;2.97;;;23.20;99.90;;;;;;5032543;28;20462;-43
2022/10/30 09:05:21;;;;;;;5.10;4.60;;;23.20;99.90;;;;;;5047454;28;20442;-42
2022/10/30 09:07:47;;;;;;;17.40;6.80;;;23.30;99.90;;;;;;5045500;28;20480;-25
2022/10/30 09:10:15;;;;;;;8.97;5.83;;;22.20;99.90;;;;;;5044182;28;20485;-23
2022/10/30 09:12:43;;;;;;;8.50;5.10;;;20.40;99.90;;;;;;5047432;28;20465;-23
2022/10/30 09:15:10;;;;;;;11.07;5.10;;;20.50;99.90;;;;;;5048221;28;20441;-23
2022/10/30 09:17:36;;;;;;;16.80;6.23;;;20.50;99.90;;;;;;5048758;28;20488;-22
2022/10/30 09:20:04;;;;;;;11.37;5.50;;;20.50;99.90;;;;;;5049567;28;20476;-23
2022/10/30 09:22:30;;;;;;;12.93;5.57;;;20.70;99.90;;;;;;5043555;28;20465;-22
2022/10/30 09:24:57;;;;;;;12.10;6.57;;;20.50;99.90;;;;;;5044977;28;20457;-23
2022/10/30 09:27:24;;;;;;;11.60;5.40;;;20.60;99.90;;;;;;5044171;28;20957;-23
2022/10/30 09:29:52;;;;;;;10.03;5.47;;;20.90;99.90;;;;;;5050683;28;20473;-22
2022/10/30 09:32:18;;;;;;;16.83;6.67;;;21.10;99.90;;;;;;5045360;28;20466;-23
2022/10/30 09:34:45;;;;;;;5.93;4.73;;;21.10;99.90;;;;;;5047118;28;20457;-23
2022/10/30 09:37:12;;;;;;;11.50;5.40;;;21.30;99.90;;;;;;5045388;28;20464;-24
2022/10/30 09:39:38;;;;;;;7.63;5.00;;;21.10;99.90;;;;;;5043016;28;20444;-24
2022/10/30 09:42:25;;;;;;;16.57;5.30;;;21.10;99.90;;;;;;5049675;28;21102;-24
2022/10/30 09:45:08;;;;;;;14.37;6.33;;;21.40;99.90;;;;;;5046004;28;20956;-23
2022/10/30 09:47:41;;;;;;;11.70;5.07;;;21.50;99.90;;;;;;5039925;28;20520;-23
2022/10/30 09:50:24;;;;;;;11.43;5.70;;;21.40;99.90;;;;;;5041039;28;21086;-23
2022/10/30 09:52:59;;;;;;;7.00;5.00;;;21.30;99.90;;;;;;5041523;28;20511;-23
2022/10/30 09:55:40;;;;;;;10.13;5.90;;;21.40;99.90;;;;;;5043153;28;20964;-23
2022/10/30 09:58:26;;;;;;;9.37;5.50;;;21.50;99.90;;;;;;5047217;28;20484;-23
2022/10/30 10:01:08;;;;;;;7.50;4.53;;;21.60;99.90;;;;;;5041416;28;20471;-23
2022/10/30 10:03:48;;;;;;;15.27;6.40;;;22.00;99.90;;;;;;5041734;28;20513;-23
2022/10/30 10:06:18;;;;;;;8.33;5.53;;;21.90;99.90;;;;;;5047241;28;20721;-23
2022/10/30 10:08:49;;;;;;;13.37;5.83;;;21.60;99.90;;;;;;5042682;28;20515;-23
2022/10/30 10:11:21;;;;;;;7.83;4.97;;;21.60;99.90;;;;;;5043870;28;20473;-23
2022/10/30 10:13:53;;;;;;;7.00;4.00;;;21.80;99.90;;;;;;5047594;28;20452;-23
2022/10/30 10:16:23;;;;;;;11.27;4.43;;;21.90;99.90;;;;;;5036154;28;21019;-23
2022/10/30 10:19:10;;;;;;;5.70;4.20;;;21.70;99.90;;;;;;5041200;28;20445;-23
2022/10/30 10:21:43;;;;;;;7.80;4.73;;;21.60;99.90;;;;;;5041627;28;20519;-23
2022/10/30 10:24:20;;;;;;;11.30;4.30;;;21.70;99.90;;;;;;5050655;28;20848;-23
2022/10/30 10:26:49;;;;;;;5.30;3.77;;;21.90;99.90;;;;;;5043323;28;20532;-24
2022/10/30 10:29:33;;;;;;;8.17;3.97;;;21.80;99.90;;;;;;5049294;28;20981;-23
2022/10/30 10:32:34;;;;;;;11.80;4.80;;;21.80;99.90;;;;;;5047253;28;20570;-24
2022/10/30 10:35:21;;;;;;;7.03;4.10;;;22.00;99.90;;;;;;5045382;28;20492;-25
2022/10/30 10:37:56;;;;;;;7.43;3.97;;;22.00;99.90;;;;;;5038257;28;20833;-23
2022/10/30 10:40:35;;;;;;;6.40;4.40;;;21.90;99.90;;;;;;5050607;28;20870;-23
2022/10/30 10:43:14;;;;;;;9.83;4.20;;;21.70;99.90;;;;;;5051566;28;20452;-23
2022/10/30 10:45:49;;;;;;;8.93;4.20;;;21.90;99.90;;;;;;5045357;28;20454;-23
2022/10/30 10:48:32;;;;;;;17.53;4.93;;;21.90;99.90;;;;;;5045151;28;20460;-24
2022/10/30 10:51:04;;;;;;;13.83;4.93;;;22.10;99.90;;;;;;5039916;28;20880;-23
2022/10/30 10:53:44;;;;;;;13.87;4.50;;;22.10;99.90;;;;;;5039349;28;21738;-24
2022/10/30 10:56:11;;;;;;;8.03;3.83;;;22.00;99.90;;;;;;5049215;28;20465;-44
2022/10/30 10:58:44;;;;;;;8.50;4.50;;;21.90;99.90;;;;;;5032250;28;20945;-44
2022/10/30 11:01:15;;;;;;;9.57;4.20;;;22.10;99.90;;;;;;5033141;28;20469;-43
2022/10/30 11:03:52;;;;;;;9.53;5.07;;;22.20;99.90;;;;;;5035411;28;20485;-45
2022/10/30 11:06:21;;;;;;;6.40;3.57;;;22.20;99.90;;;;;;5037059;28;21046;-48
2022/10/30 11:08:48;;;;;;;7.67;3.73;;;22.20;99.90;;;;;;5038871;28;20453;-45
2022/10/30 11:11:15;;;;;;;6.13;4.10;;;22.30;99.90;;;;;;5043637;28;20485;-46
2022/10/30 11:13:44;;;;;;;13.67;4.40;;;22.30;99.90;;;;;;5045765;28;20465;-45
2022/10/30 11:16:21;;;;;;;10.60;4.23;;;22.40;99.90;;;;;;5046102;28;20842;-45
2022/10/30 11:18:54;;;;;;;7.23;4.00;;;22.40;99.90;;;;;;5041190;28;20932;-45
2022/10/30 11:21:23;;;;;;;6.57;3.63;;;22.40;99.90;;;;;;5046515;28;20480;-48
2022/10/30 11:23:50;;;;;;;5.57;4.00;;;22.50;99.90;;;;;;5037256;28;20467;-44
2022/10/30 11:26:33;;;;;;;5.60;3.47;;;22.50;99.90;;;;;;5043340;28;20461;-44
2022/10/30 11:29:04;;;;;;;6.60;3.70;;;22.50;99.90;;;;;;5042970;28;20755;-45
2022/10/30 11:31:36;;;;;;;8.07;4.27;;;22.50;99.90;;;;;;5037361;28;20477;-46
2022/10/30 11:34:30;;;;;;;3.40;2.97;;;22.60;99.90;;;;;;5049611;28;20469;-45
2022/10/30 11:36:57;;;;;;;3.70;3.23;;;22.60;99.90;;;;;;5039384;28;20439;-45
2022/10/30 11:39:25;;;;;;;6.20;4.73;;;22.60;99.90;;;;;;5037332;28;20461;-45
2022/10/30 11:42:03;;;;;;;6.57;4.53;;;22.60;99.90;;;;;;5040326;28;20787;-45
2022/10/30 11:44:33;;;;;;;5.90;3.83;;;22.60;99.90;;;;;;5049505;28;20445;-44
2022/10/30 11:47:00;;;;;;;7.13;3.60;;;22.60;99.90;;;;;;5031539;28;20471;-44
2022/10/30 11:49:35;;;;;;;7.27;4.07;;;22.60;99.90;;;;;;5037816;28;20464;-45
2022/10/30 11:52:02;;;;;;;3.50;3.20;;;22.60;99.90;;;;;;5035657;28;20477;-47
2022/10/30 11:54:29;;;;;;;6.40;3.67;;;22.60;99.90;;;;;;5040427;28;20450;-45
2022/10/30 11:56:57;;;;;;;6.20;3.50;;;22.60;99.90;;;;;;5038795;28;20457;-45
2022/10/30 11:59:24;;;;;;;6.20;3.23;;;22.60;99.90;;;;;;5047108;28;20520;-45
2022/10/30 12:01:59;;;;;;;4.50;3.07;;;22.60;99.90;;;;;;5041020;28;20465;-45
2022/10/30 12:04:31;;;;;;;6.37;3.70;;;22.60;99.90;;;;;;5048630;28;20437;-45
2022/10/30 12:07:09;;;;;;;11.70;4.30;;;22.70;99.90;;;;;;5040011;28;20960;-48
2022/10/30 12:09:43;;;;;;;9.10;3.57;;;22.60;99.90;;;;;;5046148;28;20457;-45
2022/10/30 12:12:21;;;;;;;4.87;3.47;;;22.70;99.90;;;;;;5040871;28;21060;-44
2022/10/30 12:14:48;;;;;;;3.73;3.43;;;22.70;99.90;;;;;;5043706;28;20483;-46
2022/10/30 12:17:16;;;;;;;5.90;3.77;;;22.70;99.90;;;;;;5046143;28;21111;-45
2022/10/30 12:19:48;;;;;;;3.70;3.23;;;22.70;99.90;;;;;;5042915;28;20492;-45
2022/10/30 12:22:25;;;;;;;3.90;3.50;;;22.70;99.90;;;;;;5038640;28;20458;-47
2022/10/30 12:24:52;;;;;;;4.60;3.20;;;22.70;99.90;;;;;;5037740;28;20456;-47
2022/10/30 12:27:19;;;;;;;4.50;2.90;;;22.70;99.90;;;;;;5044099;28;20462;-46
2022/10/30 12:30:01;;;;;;;3.67;2.60;;;22.70;99.90;;;;;;5035365;28;20519;-47
2022/10/30 12:32:37;;;;;;;3.23;2.80;;;22.70;99.90;;;;;;5044209;28;20480;-47
2022/10/30 12:35:16;;;;;;;3.10;2.80;;;22.70;99.90;;;;;;5046713;28;20956;-47
2022/10/30 12:37:43;;;;;;;2.83;2.50;;;22.70;99.90;;;;;;5041371;28;20465;-45
2022/10/30 12:40:16;;;;;;;3.23;2.93;;;22.70;99.90;;;;;;5049211;28;20841;-44
2022/10/30 12:42:48;;;;;;;4.37;3.20;;;22.70;99.90;;;;;;5040323;28;20965;-45
2022/10/30 12:45:19;;;;;;;3.67;3.10;;;22.80;99.90;;;;;;5051629;28;20809;-44
2022/10/30 12:47:52;;;;;;;6.43;2.70;;;22.70;99.90;;;;;;5044658;28;20461;-45
2022/10/30 12:50:25;;;;;;;4.53;3.40;;;22.70;99.90;;;;;;5052266;28;20584;-44
2022/10/30 12:52:59;;;;;;;2.87;2.60;;;22.70;99.90;;;;;;5046639;28;20484;-44
2022/10/30 12:55:30;;;;;;;4.70;2.83;;;22.70;99.90;;;;;;5048433;28;20465;-44
2022/10/30 12:58:04;;;;;;;4.30;3.17;;;22.80;99.90;;;;;;5043145;28;20488;-44